Time;durP1;ratioP1;P1;durP2;ratioP2;P2;SDS_P1;SDS_P2;PMS_P1;PMS_P2;Temp;Humidity;BMP_temperature;BMP_pressure;BME280_temperature;BME280_humidity;BME280_pressure;Samples;Min_cycle;Max_cycle;Signal;HPM_P1;HPM_P2
2022/06/14 00:03:18;;;;;;;8.50;7.45;;;;;;;;;;5010864;28;20060;-75
2022/06/14 00:05:44;;;;;;;8.75;7.30;;;;;;;;;;5010957;28;20030;-75
2022/06/14 00:08:11;;;;;;;10.52;6.78;;;;;;;;;;5010819;28;20470;-73
2022/06/14 00:10:37;;;;;;;9.73;6.93;;;;;;;;;;5011503;28;20036;-76
2022/06/14 00:13:04;;;;;;;8.90;7.38;;;;;;;;;;5007812;28;20505;-75
2022/06/14 00:15:30;;;;;;;11.02;7.88;;;;;;;;;;5007601;28;20033;-74
2022/06/14 00:17:56;;;;;;;11.65;7.70;;;;;;;;;;5013072;28;20428;-75
2022/06/14 00:20:21;;;;;;;8.18;7.00;;;;;;;;;;5011080;28;20045;-74
2022/06/14 00:22:47;;;;;;;10.98;8.02;;;;;;;;;;5009709;28;20517;-79
2022/06/14 00:25:33;;;;;;;10.70;7.78;;;;;;;;;;5010772;28;20029;-74
2022/06/14 00:28:01;;;;;;;9.07;7.10;;;;;;;;;;5015734;28;20034;-75
2022/06/14 00:30:28;;;;;;;9.13;7.53;;;;;;;;;;5005877;28;20046;-75
2022/06/14 00:32:54;;;;;;;9.63;7.30;;;;;;;;;;5008526;28;20289;-76
2022/06/14 00:35:19;;;;;;;9.63;7.90;;;;;;;;;;5009753;28;20041;-79
2022/06/14 00:37:45;;;;;;;14.77;7.88;;;;;;;;;;5010668;28;20029;-74
2022/06/14 00:40:14;;;;;;;8.23;7.43;;;;;;;;;;5009401;28;20037;-78
2022/06/14 00:42:40;;;;;;;13.93;7.90;;;;;;;;;;4996052;28;20413;-80
2022/06/14 00:45:08;;;;;;;8.55;7.30;;;;;;;;;;5010804;28;20292;-78
2022/06/14 00:47:42;;;;;;;10.65;7.28;;;;;;;;;;5009785;28;20095;-75
2022/06/14 00:50:24;;;;;;;10.13;7.78;;;;;;;;;;5007372;28;20033;-78
2022/06/14 00:52:55;;;;;;;11.00;7.53;;;;;;;;;;5013787;28;20034;-75
2022/06/14 00:55:38;;;;;;;11.23;8.98;;;;;;;;;;5008125;28;20057;-75
2022/06/14 00:58:12;;;;;;;7.82;7.13;;;;;;;;;;5007981;28;20034;-74
2022/06/14 01:00:45;;;;;;;9.10;6.95;;;;;;;;;;5005978;28;20041;-74
2022/06/14 01:03:20;;;;;;;9.23;7.40;;;;;;;;;;5013030;28;20107;-74
2022/06/14 01:06:05;;;;;;;8.40;7.50;;;;;;;;;;5010220;28;20490;-73
2022/06/14 01:08:36;;;;;;;12.93;7.70;;;;;;;;;;4990636;28;20052;-74
2022/06/14 01:11:06;;;;;;;8.63;7.50;;;;;;;;;;5014815;28;20088;-75
2022/06/14 01:13:32;;;;;;;8.93;8.05;;;;;;;;;;5015858;28;20100;-75
2022/06/14 01:15:58;;;;;;;8.32;7.25;;;;;;;;;;5006645;28;20045;-75
2022/06/14 01:18:26;;;;;;;8.90;7.45;;;;;;;;;;5008230;28;20035;-75
2022/06/14 01:20:51;;;;;;;8.43;7.63;;;;;;;;;;5013076;28;20488;-75
2022/06/14 01:23:18;;;;;;;9.38;7.35;;;;;;;;;;5010596;28;20074;-78
2022/06/14 01:26:05;;;;;;;10.65;8.20;;;;;;;;;;5007871;28;20121;-76
2022/06/14 01:28:32;;;;;;;9.32;7.55;;;;;;;;;;5010857;28;20100;-79
2022/06/14 01:30:58;;;;;;;8.05;7.35;;;;;;;;;;5010372;28;20050;-76
2022/06/14 01:33:34;;;;;;;8.38;7.57;;;;;;;;;;5008547;28;20033;-77
2022/06/14 01:36:05;;;;;;;12.73;8.25;;;;;;;;;;5006346;28;20575;-78
2022/06/14 01:38:31;;;;;;;14.98;8.38;;;;;;;;;;5009153;28;21011;-74
2022/06/14 01:41:15;;;;;;;10.98;7.95;;;;;;;;;;5012772;28;20033;-74
2022/06/14 01:43:59;;;;;;;10.65;7.85;;;;;;;;;;5006772;28;20430;-74
2022/06/14 01:46:40;;;;;;;12.30;7.97;;;;;;;;;;5010152;28;20453;-74
2022/06/14 01:52:31;;;;;;;9.02;7.78;;;;;;;;;;5009218;28;20037;-75
2022/06/14 01:55:26;;;;;;;10.85;7.85;;;;;;;;;;5023524;28;20055;-76
2022/06/14 01:58:23;;;;;;;9.10;7.93;;;;;;;;;;5013801;28;20022;-75
2022/06/14 02:00:53;;;;;;;8.35;7.65;;;;;;;;;;5009567;28;20038;-80
2022/06/14 02:06:13;;;;;;;8.35;7.65;;;;;;;;;;5007997;28;20033;-78
2022/06/14 02:08:46;;;;;;;9.07;8.07;;;;;;;;;;5026192;28;20083;-78
2022/06/14 02:11:18;;;;;;;10.85;8.15;;;;;;;;;;5009965;28;20042;-75
2022/06/14 02:13:44;;;;;;;8.82;7.70;;;;;;;;;;5014496;28;20026;-76
2022/06/14 02:16:43;;;;;;;9.18;7.82;;;;;;;;;;5012500;28;20440;-75
2022/06/14 02:19:16;;;;;;;15.75;8.10;;;;;;;;;;4943260;28;20047;-78
2022/06/14 02:21:47;;;;;;;8.57;7.78;;;;;;;;;;4953020;28;20035;-77
2022/06/14 02:24:21;;;;;;;10.52;8.10;;;;;;;;;;4955144;28;20069;-76
2022/06/14 02:27:14;;;;;;;13.02;8.15;;;;;;;;;;4956065;28;20126;-74
2022/06/14 02:30:19;;;;;;;8.82;7.97;;;;;;;;;;4953183;28;20059;-75
2022/06/14 02:32:51;;;;;;;9.45;8.15;;;;;;;;;;4863592;29;20345;-77
2022/06/14 02:35:29;;;;;;;9.95;8.35;;;;;;;;;;4877726;29;20053;-75
2022/06/14 02:38:19;;;;;;;10.23;8.60;;;;;;;;;;4881302;29;20064;-74
2022/06/14 02:41:04;;;;;;;9.57;8.25;;;;;;;;;;4863634;29;20041;-74
2022/06/14 02:43:38;;;;;;;9.23;8.32;;;;;;;;;;4879489;29;20071;-79
2022/06/14 02:46:14;;;;;;;10.20;8.35;;;;;;;;;;4881179;29;20060;-78
2022/06/14 02:48:46;;;;;;;11.18;8.25;;;;;;;;;;4880888;29;20051;-77
2022/06/14 02:51:28;;;;;;;8.10;7.50;;;;;;;;;;4879657;29;20037;-74
2022/06/14 02:54:04;;;;;;;12.65;9.02;;;;;;;;;;4879087;29;20041;-75
2022/06/14 02:56:42;;;;;;;10.10;7.82;;;;;;;;;;4910963;29;20051;-77
2022/06/14 02:59:36;;;;;;;9.95;8.13;;;;;;;;;;4928969;29;20031;-75
2022/06/14 03:02:08;;;;;;;11.75;8.20;;;;;;;;;;4929452;28;20087;-75
2022/06/14 03:04:44;;;;;;;10.73;8.38;;;;;;;;;;4928585;29;20075;-75
2022/06/14 03:07:14;;;;;;;8.80;7.93;;;;;;;;;;4932975;28;20065;-75
2022/06/14 03:09:42;;;;;;;12.48;8.48;;;;;;;;;;5006863;28;20473;-76
2022/06/14 03:12:18;;;;;;;10.88;8.15;;;;;;;;;;5012456;28;20057;-76
2022/06/14 03:14:57;;;;;;;8.57;7.70;;;;;;;;;;5008075;28;20739;-75
2022/06/14 03:17:44;;;;;;;12.77;8.63;;;;;;;;;;5003851;28;20036;-76
2022/06/14 03:20:11;;;;;;;9.77;8.73;;;;;;;;;;5004991;28;20120;-75
2022/06/14 03:23:01;;;;;;;8.65;7.85;;;;;;;;;;5007944;28;20037;-78
2022/06/14 03:25:44;;;;;;;11.68;7.75;;;;;;;;;;5008092;28;20603;-74
2022/06/14 03:28:15;;;;;;;10.00;8.20;;;;;;;;;;5006202;28;20038;-76
2022/06/14 03:30:51;;;;;;;8.65;7.85;;;;;;;;;;5009460;28;20030;-74
2022/06/14 03:33:29;;;;;;;9.85;8.13;;;;;;;;;;5007667;28;20033;-74
2022/06/14 03:35:55;;;;;;;14.57;9.10;;;;;;;;;;5011301;28;20033;-74
2022/06/14 03:38:31;;;;;;;9.30;8.20;;;;;;;;;;5013219;28;20030;-74
2022/06/14 03:40:58;;;;;;;9.45;8.45;;;;;;;;;;5004005;28;20046;-76
2022/06/14 03:43:24;;;;;;;9.82;8.57;;;;;;;;;;5005847;28;20056;-77
2022/06/14 03:46:03;;;;;;;12.73;8.60;;;;;;;;;;5007835;28;20040;-76
2022/06/14 03:48:32;;;;;;;13.65;8.98;;;;;;;;;;5006574;28;21478;-75
2022/06/14 03:51:08;;;;;;;11.20;8.07;;;;;;;;;;5006009;28;20044;-75
2022/06/14 03:53:51;;;;;;;9.10;8.25;;;;;;;;;;5011765;28;20026;-76
2022/06/14 03:56:37;;;;;;;10.30;8.43;;;;;;;;;;5009766;28;20058;-75
2022/06/14 03:59:37;;;;;;;14.05;8.43;;;;;;;;;;5007247;28;20076;-74
2022/06/14 04:02:52;;;;;;;9.65;8.10;;;;;;;;;;5004969;28;20140;-78
2022/06/14 04:05:26;;;;;;;9.85;8.38;;;;;;;;;;5008402;28;20049;-74
2022/06/14 04:07:58;;;;;;;10.60;8.40;;;;;;;;;;5010696;28;20069;-74
2022/06/14 04:10:45;;;;;;;10.90;8.98;;;;;;;;;;5007831;28;20121;-74
2022/06/14 04:13:48;;;;;;;8.82;7.70;;;;;;;;;;5005950;28;20045;-76
2022/06/14 04:16:26;;;;;;;8.93;7.72;;;;;;;;;;5010154;28;20084;-76
2022/06/14 04:19:03;;;;;;;7.80;7.13;;;;;;;;;;5002112;28;20101;-74
2022/06/14 04:21:53;;;;;;;10.20;7.43;;;;;;;;;;5006537;28;20041;-76
2022/06/14 04:24:51;;;;;;;8.95;7.47;;;;;;;;;;5007699;28;20029;-76
2022/06/14 04:27:23;;;;;;;8.02;7.32;;;;;;;;;;4989159;28;20100;-76
2022/06/14 04:30:03;;;;;;;11.82;7.45;;;;;;;;;;5004851;28;20037;-75
2022/06/14 04:32:45;;;;;;;7.28;6.68;;;;;;;;;;5003054;28;20042;-76
2022/06/14 04:35:19;;;;;;;7.28;6.72;;;;;;;;;;5008181;28;20029;-78
2022/06/14 04:37:53;;;;;;;8.68;7.85;;;;;;;;;;5009055;28;20049;-78
2022/06/14 04:40:19;;;;;;;8.18;7.47;;;;;;;;;;5005476;28;20044;-75
2022/06/14 04:42:52;;;;;;;9.07;7.10;;;;;;;;;;5007308;28;20037;-75
2022/06/14 04:45:23;;;;;;;8.95;7.57;;;;;;;;;;5013806;28;20045;-76
2022/06/14 04:47:54;;;;;;;8.45;7.60;;;;;;;;;;5007756;28;20080;-75
2022/06/14 04:50:37;;;;;;;8.25;7.45;;;;;;;;;;5007424;28;20076;-77
2022/06/14 04:53:27;;;;;;;8.98;7.93;;;;;;;;;;5009050;28;20484;-77
2022/06/14 04:56:09;;;;;;;8.40;7.70;;;;;;;;;;5013031;28;20662;-75
2022/06/14 04:58:48;;;;;;;8.63;7.55;;;;;;;;;;5009071;28;20033;-79
2022/06/14 05:01:25;;;;;;;10.23;8.18;;;;;;;;;;5009016;28;20037;-76
2022/06/14 05:04:06;;;;;;;9.48;7.40;;;;;;;;;;5009894;28;20044;-76
2022/06/14 05:06:40;;;;;;;9.85;7.70;;;;;;;;;;4993100;28;20088;-77
2022/06/14 05:09:19;;;;;;;8.10;7.40;;;;;;;;;;5007337;28;20029;-81
2022/06/14 05:12:03;;;;;;;7.78;7.13;;;;;;;;;;5023314;28;20045;-80
2022/06/14 05:14:45;;;;;;;7.97;7.28;;;;;;;;;;5016195;28;20053;-79
2022/06/14 05:17:13;;;;;;;7.85;7.05;;;;;;;;;;5017060;28;20041;-79
2022/06/14 05:20:01;;;;;;;8.93;7.27;;;;;;;;;;5016060;28;20057;-78
2022/06/14 05:22:54;;;;;;;9.40;7.43;;;;;;;;;;5021167;28;20048;-79
2022/06/14 05:25:20;;;;;;;12.05;7.30;;;;;;;;;;5005307;28;20049;-80
2022/06/14 05:28:02;;;;;;;8.80;7.15;;;;;;;;;;5030997;28;20403;-78
2022/06/14 05:30:45;;;;;;;8.93;7.57;;;;;;;;;;5017743;28;20107;-79
2022/06/14 05:33:26;;;;;;;9.10;8.25;;;;;;;;;;5017216;28;20034;-73
2022/06/14 05:36:11;;;;;;;8.85;7.40;;;;;;;;;;5015737;28;20045;-73
2022/06/14 05:39:12;;;;;;;7.85;7.15;;;;;;;;;;5010950;28;20061;-74
2022/06/14 05:41:50;;;;;;;9.80;8.02;;;;;;;;;;4995850;28;20041;-73
2022/06/14 05:44:32;;;;;;;9.07;7.88;;;;;;;;;;5010922;28;20034;-73
2022/06/14 05:47:10;;;;;;;8.88;7.80;;;;;;;;;;5008833;28;20088;-73
2022/06/14 05:49:41;;;;;;;8.60;7.65;;;;;;;;;;5015560;28;20034;-73
2022/06/14 05:52:07;;;;;;;8.77;7.88;;;;;;;;;;5011154;28;20091;-73
2022/06/14 05:54:43;;;;;;;9.02;8.13;;;;;;;;;;5012576;28;20454;-74
2022/06/14 05:57:12;;;;;;;8.75;7.85;;;;;;;;;;5008635;28;20040;-73
2022/06/14 05:59:47;;;;;;;8.25;7.60;;;;;;;;;;5020336;28;20022;-73
2022/06/14 06:02:31;;;;;;;8.13;7.40;;;;;;;;;;5011249;28;20029;-74
2022/06/14 06:05:08;;;;;;;8.98;8.07;;;;;;;;;;5015024;28;20091;-73
2022/06/14 06:07:39;;;;;;;8.48;7.43;;;;;;;;;;5017481;28;20041;-74
2022/06/14 06:10:14;;;;;;;8.40;7.70;;;;;;;;;;5014064;28;20485;-74
2022/06/14 06:13:20;;;;;;;8.73;8.02;;;;;;;;;;5008132;28;20042;-73
2022/06/14 06:15:51;;;;;;;9.98;8.15;;;;;;;;;;5010624;28;20041;-73
2022/06/14 06:18:24;;;;;;;8.45;7.65;;;;;;;;;;5011727;28;20030;-74
2022/06/14 06:20:58;;;;;;;9.05;8.18;;;;;;;;;;5011323;28;20045;-73
2022/06/14 06:23:24;;;;;;;8.65;7.78;;;;;;;;;;5017048;28;20040;-73
2022/06/14 06:25:55;;;;;;;8.32;7.60;;;;;;;;;;5016849;28;20042;-74
2022/06/14 06:28:35;;;;;;;12.27;7.72;;;;;;;;;;5011628;28;20088;-74
2022/06/14 06:31:17;;;;;;;8.05;7.25;;;;;;;;;;5010643;28;20048;-74
2022/06/14 06:33:49;;;;;;;8.43;7.70;;;;;;;;;;5015257;28;20041;-74
2022/06/14 06:37:08;;;;;;;10.32;7.28;;;;;;;;;;5011093;28;20033;-74
2022/06/14 06:39:47;;;;;;;10.05;7.68;;;;;;;;;;4969351;28;20065;-72
2022/06/14 06:42:41;;;;;;;9.73;7.45;;;;;;;;;;4972418;28;20451;-73
2022/06/14 06:45:09;;;;;;;8.68;7.88;;;;;;;;;;4967202;28;20047;-73
2022/06/14 06:47:47;;;;;;;10.82;7.88;;;;;;;;;;4965176;28;20089;-73
2022/06/14 06:50:22;;;;;;;8.85;7.18;;;;;;;;;;4970084;28;20049;-74
2022/06/14 06:53:11;;;;;;;10.32;7.35;;;;;;;;;;4968138;28;20121;-74
2022/06/14 06:55:39;;;;;;;;;;;;;;;;;;4971851;28;20039;-74
2022/06/14 06:58:13;;;;;;;9.67;7.77;;;;;;;;;;4967956;28;19956;-72
2022/06/14 07:00:40;;;;;;;8.02;7.25;;;;;;;;;;4965439;28;20408;-73
2022/06/14 07:03:19;;;;;;;9.10;7.90;;;;;;;;;;4971872;28;20042;-74
2022/06/14 07:05:49;;;;;;;8.25;7.50;;;;;;;;;;4970056;28;20047;-73
2022/06/14 07:08:20;;;;;;;9.77;7.75;;;;;;;;;;4968276;28;20574;-73
2022/06/14 07:10:52;;;;;;;9.60;7.32;;;;;;;;;;4969259;28;20410;-74
2022/06/14 07:13:27;;;;;;;10.05;6.68;;;;;;;;;;4987885;28;20049;-74
2022/06/14 07:16:06;;;;;;;9.40;7.63;;;;;;;;;;5009396;28;20042;-74
2022/06/14 07:19:05;;;;;;;8.23;7.30;;;;;;;;;;5009377;28;20021;-70
2022/06/14 07:21:36;;;;;;;7.93;7.22;;;;;;;;;;5010759;28;20132;-72
2022/06/14 07:24:19;;;;;;;10.40;7.18;;;;;;;;;;5009633;28;20113;-71
2022/06/14 07:27:05;;;;;;;9.27;7.40;;;;;;;;;;5010673;28;20049;-72
2022/06/14 07:29:43;;;;;;;8.68;7.88;;;;;;;;;;5011659;28;20504;-71
2022/06/14 07:32:24;;;;;;;7.97;7.37;;;;;;;;;;5009496;28;20037;-71
2022/06/14 07:34:51;;;;;;;8.57;7.30;;;;;;;;;;5016552;28;20284;-71
2022/06/14 07:37:43;;;;;;;8.43;7.20;;;;;;;;;;5006042;28;21014;-71
2022/06/14 07:40:11;;;;;;;12.15;7.10;;;;;;;;;;5010786;28;20416;-71
2022/06/14 07:42:45;;;;;;;8.68;7.88;;;;;;;;;;5010023;28;20096;-71
2022/06/14 07:45:23;;;;;;;8.30;7.22;;;;;;;;;;5008486;28;20117;-72
2022/06/14 07:47:57;;;;;;;9.50;7.55;;;;;;;;;;5012471;28;20033;-70
2022/06/14 07:50:45;;;;;;;10.00;7.88;;;;;;;;;;5013682;28;20511;-71
2022/06/14 07:53:33;;;;;;;8.33;7.53;;;;;;;;;;5005919;28;20036;-70
2022/06/14 07:56:13;;;;;;;9.40;7.05;;;;;;;;;;5007249;28;20049;-71
2022/06/14 07:59:04;;;;;;;8.13;7.32;;;;;;;;;;5012499;28;20121;-71
2022/06/14 08:01:39;;;;;;;7.80;6.97;;;;;;;;;;5013043;28;20100;-71
2022/06/14 08:04:31;;;;;;;9.55;7.13;;;;;;;;;;5013212;28;20034;-71
2022/06/14 08:07:10;;;;;;;7.50;6.78;;;;;;;;;;5016930;28;20121;-71
2022/06/14 08:09:41;;;;;;;9.60;7.20;;;;;;;;;;5015723;28;20029;-71
2022/06/14 08:12:19;;;;;;;8.15;6.88;;;;;;;;;;5012679;28;20034;-72
2022/06/14 08:14:53;;;;;;;8.13;7.20;;;;;;;;;;5010911;28;20116;-71
2022/06/14 08:17:45;;;;;;;7.47;6.68;;;;;;;;;;5014317;28;20037;-71
2022/06/14 08:20:26;;;;;;;7.85;7.03;;;;;;;;;;5018984;28;20041;-71
2022/06/14 08:22:57;;;;;;;8.80;7.22;;;;;;;;;;5017075;28;20729;-71
2022/06/14 08:25:29;;;;;;;8.80;7.32;;;;;;;;;;5018515;28;20038;-71
2022/06/14 08:28:15;;;;;;;7.63;6.85;;;;;;;;;;5018633;28;20141;-70
2022/06/14 08:30:51;;;;;;;8.35;7.47;;;;;;;;;;5010252;28;20037;-71
2022/06/14 08:33:29;;;;;;;7.90;7.15;;;;;;;;;;5013068;28;20560;-71
2022/06/14 08:36:00;;;;;;;7.97;6.63;;;;;;;;;;5008786;28;20109;-70
2022/06/14 08:38:46;;;;;;;8.27;7.57;;;;;;;;;;5005906;28;20567;-70
2022/06/14 08:41:46;;;;;;;9.15;7.57;;;;;;;;;;5011417;28;20034;-70
2022/06/14 08:44:23;;;;;;;10.65;7.82;;;;;;;;;;5006563;28;20510;-70
2022/06/14 08:46:57;;;;;;;9.27;7.05;;;;;;;;;;5000999;28;20036;-70
2022/06/14 08:49:49;;;;;;;7.15;6.55;;;;;;;;;;5006273;28;20037;-70
2022/06/14 08:52:32;;;;;;;7.45;6.78;;;;;;;;;;5009349;28;20030;-71
2022/06/14 08:55:06;;;;;;;8.90;7.30;;;;;;;;;;5006886;28;20069;-70
2022/06/14 08:58:18;;;;;;;7.35;6.65;;;;;;;;;;5006698;28;20117;-71
2022/06/14 09:01:04;;;;;;;9.10;7.00;;;;;;;;;;4950624;28;20624;-70
2022/06/14 09:03:35;;;;;;;7.78;6.57;;;;;;;;;;4947325;28;20875;-70
2022/06/14 09:06:26;;;;;;;8.23;6.65;;;;;;;;;;4957106;28;20050;-70
2022/06/14 09:09:34;;;;;;;7.30;6.63;;;;;;;;;;4950299;28;20074;-71
2022/06/14 09:12:25;;;;;;;7.53;6.75;;;;;;;;;;4949861;28;20051;-71
2022/06/14 09:15:31;;;;;;;7.00;6.40;;;;;;;;;;4953739;28;20054;-71
2022/06/14 09:18:22;;;;;;;7.18;6.45;;;;;;;;;;4950260;29;20046;-70
2022/06/14 09:20:57;;;;;;;6.97;6.28;;;;;;;;;;4952364;28;20031;-71
2022/06/14 09:23:47;;;;;;;7.10;6.45;;;;;;;;;;4956507;28;20043;-70
2022/06/14 09:26:28;;;;;;;7.07;6.57;;;;;;;;;;4949630;28;20039;-70
2022/06/14 09:29:29;;;;;;;7.07;6.53;;;;;;;;;;4949388;28;20102;-70
2022/06/14 09:32:06;;;;;;;7.43;6.80;;;;;;;;;;4950797;28;20550;-70
2022/06/14 09:34:47;;;;;;;7.68;6.93;;;;;;;;;;4949359;29;20138;-70
2022/06/14 09:37:50;;;;;;;7.90;7.10;;;;;;;;;;4970552;28;20052;-70
2022/06/14 09:40:36;;;;;;;7.85;6.90;;;;;;;;;;5015127;28;20030;-70
2022/06/14 09:43:16;;;;;;;7.47;6.70;;;;;;;;;;5009483;28;20057;-70
2022/06/14 09:45:54;;;;;;;7.75;6.97;;;;;;;;;;5008346;28;20465;-70
2022/06/14 09:48:56;;;;;;;7.72;6.95;;;;;;;;;;5011387;28;20046;-70
2022/06/14 09:51:37;;;;;;;7.22;6.68;;;;;;;;;;5012040;28;20037;-70
2022/06/14 09:54:02;;;;;;;7.97;6.95;;;;;;;;;;5010052;28;20069;-70
2022/06/14 09:56:56;;;;;;;7.75;6.95;;;;;;;;;;5012860;28;20084;-70
2022/06/14 09:59:43;;;;;;;8.27;7.38;;;;;;;;;;5013086;28;20037;-70
2022/06/14 10:02:16;;;;;;;7.13;6.50;;;;;;;;;;5009554;28;20554;-70
2022/06/14 10:05:17;;;;;;;7.40;6.70;;;;;;;;;;5012565;28;20409;-70
2022/06/14 10:07:46;;;;;;;9.35;7.32;;;;;;;;;;5010812;28;20061;-70
2022/06/14 10:10:19;;;;;;;7.53;6.93;;;;;;;;;;5009435;28;20489;-70
2022/06/14 10:13:02;;;;;;;8.00;6.95;;;;;;;;;;5014046;28;20044;-70
2022/06/14 10:15:37;;;;;;;7.32;6.63;;;;;;;;;;5016003;28;20065;-70
2022/06/14 10:18:18;;;;;;;7.57;6.88;;;;;;;;;;5009554;28;20052;-70
2022/06/14 10:20:53;;;;;;;8.00;6.90;;;;;;;;;;5011885;28;20034;-70
2022/06/14 10:23:40;;;;;;;7.47;6.05;;;;;;;;;;5010726;28;20490;-70
2022/06/14 10:29:30;;;;;;;6.72;6.10;;;;;;;;;;5011158;28;20423;-70
2022/06/14 10:32:21;;;;;;;7.05;6.20;;;;;;;;;;5013569;28;20109;-70
2022/06/14 10:34:59;;;;;;;11.63;6.25;;;;;;;;;;5008740;28;20036;-70
2022/06/14 10:37:53;;;;;;;7.53;6.63;;;;;;;;;;5006422;28;20065;-70
2022/06/14 10:40:18;;;;;;;8.90;6.55;;;;;;;;;;5013159;28;20034;-70
2022/06/14 10:43:09;;;;;;;6.80;6.30;;;;;;;;;;5009101;28;20105;-70
2022/06/14 10:45:42;;;;;;;7.45;6.75;;;;;;;;;;5005470;28;20030;-70
2022/06/14 10:48:38;;;;;;;7.20;6.50;;;;;;;;;;5011645;28;20037;-71
2022/06/14 10:51:31;;;;;;;7.78;7.00;;;;;;;;;;5008710;28;20038;-70
2022/06/14 10:54:03;;;;;;;8.32;6.88;;;;;;;;;;5006385;28;20476;-70
2022/06/14 10:56:53;;;;;;;9.60;6.60;;;;;;;;;;5014068;28;20038;-70
2022/06/14 10:59:37;;;;;;;6.78;6.18;;;;;;;;;;5007971;28;20095;-70
2022/06/14 11:02:17;;;;;;;7.13;6.53;;;;;;;;;;5008226;28;20042;-71
2022/06/14 11:05:06;;;;;;;7.78;7.07;;;;;;;;;;5010147;28;20038;-70
2022/06/14 11:07:34;;;;;;;7.55;6.95;;;;;;;;;;5012416;28;20061;-71
2022/06/14 11:10:21;;;;;;;6.90;6.20;;;;;;;;;;5007786;28;20030;-71
2022/06/14 11:12:56;;;;;;;10.13;6.65;;;;;;;;;;5015348;28;20371;-72
2022/06/14 11:15:36;;;;;;;7.60;6.90;;;;;;;;;;5008988;28;20041;-72
2022/06/14 11:18:21;;;;;;;10.90;6.28;;;;;;;;;;5008461;28;20502;-72
2022/06/14 11:21:24;;;;;;;7.20;6.60;;;;;;;;;;5009368;28;20120;-72
2022/06/14 11:23:59;;;;;;;6.80;6.20;;;;;;;;;;5010262;28;20034;-73
2022/06/14 11:26:34;;;;;;;8.98;6.60;;;;;;;;;;5008130;28;20029;-71
2022/06/14 11:29:09;;;;;;;7.13;6.53;;;;;;;;;;5004496;28;20036;-71
2022/06/14 11:32:05;;;;;;;8.10;6.22;;;;;;;;;;5013109;28;20047;-71
2022/06/14 11:34:50;;;;;;;7.25;6.35;;;;;;;;;;5007017;28;20445;-72
2022/06/14 11:37:28;;;;;;;6.82;6.18;;;;;;;;;;5006004;28;20041;-71
2022/06/14 11:40:12;;;;;;;7.07;6.43;;;;;;;;;;5011240;28;20489;-72
2022/06/14 11:42:46;;;;;;;8.20;6.32;;;;;;;;;;5011123;28;20544;-71
2022/06/14 11:45:37;;;;;;;6.80;6.13;;;;;;;;;;5004545;28;20128;-71
2022/06/14 11:48:24;;;;;;;6.80;6.20;;;;;;;;;;5007346;28;20037;-71
2022/06/14 11:50:59;;;;;;;7.15;6.65;;;;;;;;;;5004968;28;20038;-71
2022/06/14 11:53:46;;;;;;;9.30;6.43;;;;;;;;;;5002174;28;21703;-71
2022/06/14 11:56:22;;;;;;;6.75;6.15;;;;;;;;;;5012490;28;20044;-71
2022/06/14 11:59:07;;;;;;;6.32;5.72;;;;;;;;;;5004210;28;20034;-71
2022/06/14 12:01:50;;;;;;;6.60;6.00;;;;;;;;;;5006165;28;20048;-71
2022/06/14 12:04:37;;;;;;;7.63;6.15;;;;;;;;;;5006120;28;20033;-71
2022/06/14 12:07:08;;;;;;;7.75;5.72;;;;;;;;;;5006012;28;20033;-72
2022/06/14 12:09:54;;;;;;;7.47;6.38;;;;;;;;;;5005622;28;20052;-71
2022/06/14 12:12:57;;;;;;;7.50;6.25;;;;;;;;;;5008866;28;20054;-71
2022/06/14 12:15:51;;;;;;;6.95;6.28;;;;;;;;;;5006822;28;20806;-71
2022/06/14 12:18:20;;;;;;;7.47;6.35;;;;;;;;;;5005990;28;20084;-71
2022/06/14 12:21:24;;;;;;;6.75;6.15;;;;;;;;;;5005777;28;20121;-71
2022/06/14 12:23:54;;;;;;;11.75;6.90;;;;;;;;;;5009032;28;20112;-71
2022/06/14 12:26:37;;;;;;;7.00;6.40;;;;;;;;;;5006254;28;20033;-71
2022/06/14 12:29:12;;;;;;;6.82;6.13;;;;;;;;;;5005360;28;20052;-71
2022/06/14 12:31:54;;;;;;;7.85;6.38;;;;;;;;;;5008904;28;20432;-71
2022/06/14 12:34:31;;;;;;;6.80;6.30;;;;;;;;;;5007491;28;20701;-71
2022/06/14 12:37:00;;;;;;;7.15;6.50;;;;;;;;;;5004615;28;20753;-71
2022/06/14 12:39:45;;;;;;;6.50;6.07;;;;;;;;;;5005397;28;20036;-71
2022/06/14 12:42:14;;;;;;;7.47;6.82;;;;;;;;;;5006265;28;20033;-71
2022/06/14 12:45:01;;;;;;;6.60;6.00;;;;;;;;;;5003239;28;20045;-71
2022/06/14 12:47:48;;;;;;;6.20;5.60;;;;;;;;;;5004154;28;20042;-72
2022/06/14 12:50:31;;;;;;;7.10;6.40;;;;;;;;;;5008875;28;20029;-71
2022/06/14 12:53:10;;;;;;;6.68;6.03;;;;;;;;;;5005469;28;20038;-71
2022/06/14 12:55:43;;;;;;;7.05;6.35;;;;;;;;;;5001788;28;20042;-71
2022/06/14 12:58:29;;;;;;;6.45;5.95;;;;;;;;;;5008828;28;20029;-72
2022/06/14 13:00:58;;;;;;;6.53;6.03;;;;;;;;;;4974451;28;20137;-71
2022/06/14 13:03:35;;;;;;;6.13;5.60;;;;;;;;;;5004650;28;20628;-71
2022/06/14 13:06:36;;;;;;;6.63;5.95;;;;;;;;;;5008834;28;20124;-71
2022/06/14 13:09:49;;;;;;;9.93;6.30;;;;;;;;;;5008730;28;20050;-71
2022/06/14 13:12:55;;;;;;;6.55;6.05;;;;;;;;;;4963199;28;20053;-72
2022/06/14 13:15:28;;;;;;;6.95;6.20;;;;;;;;;;4905046;28;20662;-71
2022/06/14 13:18:26;;;;;;;6.88;6.20;;;;;;;;;;4972743;28;20148;-71
2022/06/14 13:20:54;;;;;;;;;;;;;;;;;;4963763;28;20061;-71
2022/06/14 13:23:49;;;;;;;6.60;6.20;;;;;;;;;;4964834;28;19957;-71
2022/06/14 13:26:27;;;;;;;7.38;6.40;;;;;;;;;;4966462;28;20111;-71
2022/06/14 13:29:10;;;;;;;6.30;5.90;;;;;;;;;;4963683;28;20092;-72
2022/06/14 13:31:48;;;;;;;6.53;6.05;;;;;;;;;;4962200;28;20047;-71
2022/06/14 13:34:51;;;;;;;6.50;6.00;;;;;;;;;;4969290;28;20097;-71
2022/06/14 13:37:34;;;;;;;6.25;5.75;;;;;;;;;;4961602;28;20069;-72
2022/06/14 13:40:48;;;;;;;6.93;6.30;;;;;;;;;;4964097;28;20038;-71
2022/06/14 13:43:38;;;;;;;7.25;6.55;;;;;;;;;;4958699;28;20061;-72
2022/06/14 13:46:19;;;;;;;6.53;6.03;;;;;;;;;;4964383;28;20035;-72
2022/06/14 13:49:28;;;;;;;6.70;6.10;;;;;;;;;;4977570;28;20038;-72
2022/06/14 13:52:03;;;;;;;6.68;5.95;;;;;;;;;;5014493;28;20033;-71
2022/06/14 13:54:40;;;;;;;6.85;6.22;;;;;;;;;;5008032;28;20741;-71
2022/06/14 13:57:32;;;;;;;6.68;5.88;;;;;;;;;;5008774;28;20120;-72
2022/06/14 14:00:08;;;;;;;6.80;6.20;;;;;;;;;;5006921;28;20029;-72
2022/06/14 14:02:56;;;;;;;7.20;6.10;;;;;;;;;;5009076;28;20037;-72
2022/06/14 14:05:33;;;;;;;6.88;6.28;;;;;;;;;;5005593;28;20045;-72
2022/06/14 14:08:30;;;;;;;7.80;6.15;;;;;;;;;;5014868;28;20110;-72
2022/06/14 14:11:14;;;;;;;6.97;6.20;;;;;;;;;;5009195;28;20046;-72
2022/06/14 14:13:39;;;;;;;6.70;6.10;;;;;;;;;;5007627;28;20034;-72
2022/06/14 14:16:19;;;;;;;7.70;6.30;;;;;;;;;;5009515;28;20084;-72
2022/06/14 14:19:24;;;;;;;6.68;6.18;;;;;;;;;;5014582;28;20083;-72
2022/06/14 14:22:12;;;;;;;7.03;6.30;;;;;;;;;;4932731;29;20452;-72
2022/06/14 14:24:46;;;;;;;6.53;6.03;;;;;;;;;;4936483;29;20408;-72
2022/06/14 14:27:22;;;;;;;6.63;6.05;;;;;;;;;;4930475;29;20051;-72
2022/06/14 14:30:28;;;;;;;8.70;5.90;;;;;;;;;;4930692;29;20058;-71
2022/06/14 14:33:01;;;;;;;6.70;6.10;;;;;;;;;;4923966;29;20094;-71
2022/06/14 14:35:42;;;;;;;6.07;5.57;;;;;;;;;;4930539;29;20729;-71
2022/06/14 14:38:12;;;;;;;6.80;6.00;;;;;;;;;;4933887;29;20031;-71
2022/06/14 14:41:32;;;;;;;6.55;5.95;;;;;;;;;;4930529;29;20050;-71
2022/06/14 14:43:29;;;;;;;8.13;5.60;;;;;;;;;;4928540;29;20055;-71
2022/06/14 14:46:12;;;;;;;6.97;5.80;;;;;;;;;;4932616;29;20597;-72
2022/06/14 14:48:46;;;;;;;6.70;6.10;;;;;;;;;;4936031;29;20058;-71
2022/06/14 14:51:33;;;;;;;6.38;5.78;;;;;;;;;;4928661;29;20271;-71
2022/06/14 14:54:28;;;;;;;6.50;5.90;;;;;;;;;;4931849;29;20046;-72
2022/06/14 14:57:19;;;;;;;6.72;6.13;;;;;;;;;;5011339;28;20045;-71
2022/06/14 14:59:55;;;;;;;17.63;6.72;;;;;;;;;;5008301;28;20807;-72
2022/06/14 15:05:56;;;;;;;6.43;5.78;;;;;;;;;;4977626;28;20730;-72
2022/06/14 15:08:33;;;;;;;7.20;6.57;;;;;;;;;;4980565;28;20047;-72
2022/06/14 15:11:02;;;;;;;8.98;6.03;;;;;;;;;;4976278;28;20427;-72
2022/06/14 15:13:31;;;;;;;6.45;5.95;;;;;;;;;;4975504;28;20042;-72
2022/06/14 15:15:57;;;;;;;6.85;6.25;;;;;;;;;;4973838;28;20057;-72
2022/06/14 15:21:20;;;;;;;6.60;6.00;;;;;;;;;;4955705;28;20055;-72
2022/06/14 15:23:53;;;;;;;6.40;5.80;;;;;;;;;;4974585;28;20038;-71
2022/06/14 15:26:22;;;;;;;6.70;6.10;;;;;;;;;;4977537;28;20031;-71
2022/06/14 15:28:49;;;;;;;6.15;5.75;;;;;;;;;;4977148;28;20442;-71
2022/06/14 15:31:23;;;;;;;6.22;5.72;;;;;;;;;;4977981;28;20034;-71
2022/06/14 15:33:49;;;;;;;6.68;6.05;;;;;;;;;;4977338;28;20090;-71
2022/06/14 15:36:28;;;;;;;6.18;5.50;;;;;;;;;;4977480;28;20119;-71
2022/06/14 15:39:03;;;;;;;6.07;5.68;;;;;;;;;;4976235;28;20434;-71
2022/06/14 15:41:33;;;;;;;5.70;5.22;;;;;;;;;;5006591;28;20524;-71
2022/06/14 15:44:15;;;;;;;6.00;5.50;;;;;;;;;;5008346;28;20107;-71
2022/06/14 15:46:57;;;;;;;7.65;5.70;;;;;;;;;;5009203;28;20042;-71
2022/06/14 15:49:29;;;;;;;6.57;6.00;;;;;;;;;;5014049;28;20084;-71
2022/06/14 15:51:56;;;;;;;7.93;5.85;;;;;;;;;;5009494;28;20025;-71
2022/06/14 15:54:28;;;;;;;7.03;6.20;;;;;;;;;;5008588;28;20069;-71
2022/06/14 15:57:00;;;;;;;6.55;6.00;;;;;;;;;;5007442;28;20048;-72
2022/06/14 15:59:37;;;;;;;6.55;5.90;;;;;;;;;;5013463;28;20108;-72
2022/06/14 16:02:20;;;;;;;6.78;5.95;;;;;;;;;;5008480;28;20489;-72
2022/06/14 16:04:54;;;;;;;6.40;5.88;;;;;;;;;;5009490;28;20675;-72
2022/06/14 16:07:26;;;;;;;6.25;5.75;;;;;;;;;;5010364;28;20034;-73
2022/06/14 16:10:09;;;;;;;6.07;5.60;;;;;;;;;;5014507;28;20037;-71
2022/06/14 16:12:56;;;;;;;6.15;5.65;;;;;;;;;;5009281;28;20401;-71